sensor_id;sensor_type;location;lat;lon;timestamp;pressure;altitude;pressure_sealevel;temperature
67509;BMP280;54354;44.724;11.284;2023-05-10T00:01:05;101176.09;;;19.45
67509;BMP280;54354;44.724;11.284;2023-05-10T00:03:31;101174.06;;;19.40
67509;BMP280;54354;44.724;11.284;2023-05-10T00:05:57;101166.44;;;19.39
67509;BMP280;54354;44.724;11.284;2023-05-10T00:08:22;101160.63;;;19.40
67509;BMP280;54354;44.724;11.284;2023-05-10T00:10:48;101162.13;;;19.41
67509;BMP280;54354;44.724;11.284;2023-05-10T00:13:14;101165.25;;;19.40
67509;BMP280;54354;44.724;11.284;2023-05-10T00:15:40;101161.81;;;19.39
67509;BMP280;54354;44.724;11.284;2023-05-10T00:18:05;101154.22;;;19.38
67509;BMP280;54354;44.724;11.284;2023-05-10T00:20:31;101148.75;;;19.32
67509;BMP280;54354;44.724;11.284;2023-05-10T00:22:56;101151.00;;;19.24
67509;BMP280;54354;44.724;11.284;2023-05-10T00:25:22;101150.91;;;19.19
67509;BMP280;54354;44.724;11.284;2023-05-10T00:27:47;101154.78;;;19.18
67509;BMP280;54354;44.724;11.284;2023-05-10T00:30:13;101150.91;;;19.19
67509;BMP280;54354;44.724;11.284;2023-05-10T00:32:39;101141.06;;;19.16
67509;BMP280;54354;44.724;11.284;2023-05-10T00:35:04;101140.31;;;19.15
67509;BMP280;54354;44.724;11.284;2023-05-10T00:37:30;101144.97;;;19.15
67509;BMP280;54354;44.724;11.284;2023-05-10T00:39:55;101143.72;;;19.16
67509;BMP280;54354;44.724;11.284;2023-05-10T00:42:21;101144.78;;;19.18
67509;BMP280;54354;44.724;11.284;2023-05-10T00:44:47;101132.88;;;19.19
67509;BMP280;54354;44.724;11.284;2023-05-10T00:47:13;101129.88;;;19.17
67509;BMP280;54354;44.724;11.284;2023-05-10T00:49:40;101133.75;;;19.16
67509;BMP280;54354;44.724;11.284;2023-05-10T00:52:06;101124.69;;;19.14
67509;BMP280;54354;44.724;11.284;2023-05-10T00:54:31;101121.69;;;19.12
67509;BMP280;54354;44.724;11.284;2023-05-10T00:56:57;101117.25;;;19.09
67509;BMP280;54354;44.724;11.284;2023-05-10T00:59:24;101122.06;;;19.05
67509;BMP280;54354;44.724;11.284;2023-05-10T01:01:50;101119.38;;;19.05
67509;BMP280;54354;44.724;11.284;2023-05-10T01:04:17;101116.56;;;18.99
67509;BMP280;54354;44.724;11.284;2023-05-10T01:06:45;101116.25;;;18.97
67509;BMP280;54354;44.724;11.284;2023-05-10T01:09:10;101113.75;;;18.93
67509;BMP280;54354;44.724;11.284;2023-05-10T01:11:38;101112.72;;;18.91
67509;BMP280;54354;44.724;11.284;2023-05-10T01:14:05;101118.25;;;18.87
67509;BMP280;54354;44.724;11.284;2023-05-10T01:16:38;101121.09;;;18.84
67509;BMP280;54354;44.724;11.284;2023-05-10T01:19:12;101110.97;;;18.79
67509;BMP280;54354;44.724;11.284;2023-05-10T01:21:53;101108.47;;;18.75
67509;BMP280;54354;44.724;11.284;2023-05-10T01:32:55;101118.22;;;18.63
67509;BMP280;54354;44.724;11.284;2023-05-10T01:35:30;101111.63;;;18.64
67509;BMP280;54354;44.724;11.284;2023-05-10T01:40:44;101112.56;;;18.52
67509;BMP280;54354;44.724;11.284;2023-05-10T01:43:22;101116.91;;;18.50
67509;BMP280;54354;44.724;11.284;2023-05-10T01:46:16;101107.53;;;18.45
67509;BMP280;54354;44.724;11.284;2023-05-10T01:48:51;101115.09;;;18.47
67509;BMP280;54354;44.724;11.284;2023-05-10T01:51:22;101104.69;;;18.49
67509;BMP280;54354;44.724;11.284;2023-05-10T01:53:49;101115.72;;;18.51
67509;BMP280;54354;44.724;11.284;2023-05-10T01:56:16;101112.28;;;18.50
67509;BMP280;54354;44.724;11.284;2023-05-10T01:58:47;101110.06;;;18.49
67509;BMP280;54354;44.724;11.284;2023-05-10T02:01:35;101106.03;;;18.44
67509;BMP280;54354;44.724;11.284;2023-05-10T02:04:39;101109.75;;;18.47
67509;BMP280;54354;44.724;11.284;2023-05-10T02:07:07;101106.91;;;18.41
67509;BMP280;54354;44.724;11.284;2023-05-10T02:09:34;101108.75;;;18.35
67509;BMP280;54354;44.724;11.284;2023-05-10T02:12:02;101111.56;;;18.31
67509;BMP280;54354;44.724;11.284;2023-05-10T02:14:32;101104.44;;;18.28
67509;BMP280;54354;44.724;11.284;2023-05-10T02:16:59;101108.75;;;18.35
67509;BMP280;54354;44.724;11.284;2023-05-10T02:19:26;101103.53;;;18.40
67509;BMP280;54354;44.724;11.284;2023-05-10T02:21:55;101105.28;;;18.43
67509;BMP280;54354;44.724;11.284;2023-05-10T02:24:21;101109.16;;;18.42
67509;BMP280;54354;44.724;11.284;2023-05-10T02:26:48;101114.25;;;18.40
67509;BMP280;54354;44.724;11.284;2023-05-10T02:29:14;101103.22;;;18.38
67509;BMP280;54354;44.724;11.284;2023-05-10T02:31:41;101097.84;;;18.38
67509;BMP280;54354;44.724;11.284;2023-05-10T02:34:08;101099.03;;;18.37
67509;BMP280;54354;44.724;11.284;2023-05-10T02:36:35;101096.22;;;18.32
67509;BMP280;54354;44.724;11.284;2023-05-10T02:39:03;101106.81;;;18.26
67509;BMP280;54354;44.724;11.284;2023-05-10T02:41:30;101099.97;;;18.25
67509;BMP280;54354;44.724;11.284;2023-05-10T02:43:57;101094.75;;;18.22
67509;BMP280;54354;44.724;11.284;2023-05-10T02:46:24;101096.25;;;18.23
67509;BMP280;54354;44.724;11.284;2023-05-10T02:48:50;101103.53;;;18.22
67509;BMP280;54354;44.724;11.284;2023-05-10T02:51:16;101093.41;;;18.17
67509;BMP280;54354;44.724;11.284;2023-05-10T02:53:43;101093.41;;;18.17
67509;BMP280;54354;44.724;11.284;2023-05-10T02:56:31;101085.22;;;18.21
67509;BMP280;54354;44.724;11.284;2023-05-10T02:58:55;101091.38;;;18.21
67509;BMP280;54354;44.724;11.284;2023-05-10T03:01:21;101091.38;;;18.21
67509;BMP280;54354;44.724;11.284;2023-05-10T03:03:46;101103.25;;;18.20
67509;BMP280;54354;44.724;11.284;2023-05-10T03:06:12;101097.31;;;18.16
67509;BMP280;54354;44.724;11.284;2023-05-10T03:08:41;101090.47;;;18.15
67509;BMP280;54354;44.724;11.284;2023-05-10T03:13:43;101098.50;;;18.15
67509;BMP280;54354;44.724;11.284;2023-05-10T03:16:12;101102.38;;;18.14
67509;BMP280;54354;44.724;11.284;2023-05-10T03:18:44;101092.84;;;18.13
67509;BMP280;54354;44.724;11.284;2023-05-10T03:21:10;101101.34;;;18.11
67509;BMP280;54354;44.724;11.284;2023-05-10T03:23:43;101092.28;;;18.09
67509;BMP280;54354;44.724;11.284;2023-05-10T03:26:09;101098.78;;;18.08
67509;BMP280;54354;44.724;11.284;2023-05-10T03:28:39;101090.00;;;18.07
67509;BMP280;54354;44.724;11.284;2023-05-10T03:31:05;101094.94;;;18.09
67509;BMP280;54354;44.724;11.284;2023-05-10T03:33:32;101101.03;;;18.09
67509;BMP280;54354;44.724;11.284;2023-05-10T03:35:58;101095.22;;;18.11
67509;BMP280;54354;44.724;11.284;2023-05-10T03:38:25;101096.44;;;18.10
67509;BMP280;54354;44.724;11.284;2023-05-10T03:40:50;101101.78;;;18.10
67509;BMP280;54354;44.724;11.284;2023-05-10T03:43:15;101104.78;;;18.12
67509;BMP280;54354;44.724;11.284;2023-05-10T03:45:41;101104.03;;;18.11
67509;BMP280;54354;44.724;11.284;2023-05-10T03:48:06;101109.09;;;18.09
67509;BMP280;54354;44.724;11.284;2023-05-10T03:50:32;101109.09;;;18.09
67509;BMP280;54354;44.724;11.284;2023-05-10T03:52:57;101111.03;;;18.09
67509;BMP280;54354;44.724;11.284;2023-05-10T03:55:23;101118.03;;;18.06
67509;BMP280;54354;44.724;11.284;2023-05-10T03:57:48;101107.16;;;18.01
67509;BMP280;54354;44.724;11.284;2023-05-10T04:00:14;101111.78;;;18.00
67509;BMP280;54354;44.724;11.284;2023-05-10T04:02:40;101118.31;;;17.99
67509;BMP280;54354;44.724;11.284;2023-05-10T04:05:09;101112.06;;;17.93
67509;BMP280;54354;44.724;11.284;2023-05-10T04:07:35;101114.03;;;17.93
67509;BMP280;54354;44.724;11.284;2023-05-10T04:10:01;101112.63;;;17.88
67509;BMP280;54354;44.724;11.284;2023-05-10T04:12:26;101110.28;;;17.81
67509;BMP280;54354;44.724;11.284;2023-05-10T04:14:52;101105.50;;;17.76
67509;BMP280;54354;44.724;11.284;2023-05-10T04:17:17;101113.88;;;17.78
67509;BMP280;54354;44.724;11.284;2023-05-10T04:19:43;101115.81;;;17.77
67509;BMP280;54354;44.724;11.284;2023-05-10T04:22:08;101106.72;;;17.75
67509;BMP280;54354;44.724;11.284;2023-05-10T04:24:34;101111.31;;;17.74
67509;BMP280;54354;44.724;11.284;2023-05-10T04:26:59;101113.56;;;17.76
67509;BMP280;54354;44.724;11.284;2023-05-10T04:29:25;101113.25;;;17.74
67509;BMP280;54354;44.724;11.284;2023-05-10T04:31:51;101109.09;;;17.73
67509;BMP280;54354;44.724;11.284;2023-05-10T04:34:17;101109.88;;;17.73
67509;BMP280;54354;44.724;11.284;2023-05-10T04:36:42;101108.06;;;17.70
67509;BMP280;54354;44.724;11.284;2023-05-10T04:39:11;101113.56;;;17.67
67509;BMP280;54354;44.724;11.284;2023-05-10T04:41:43;101113.56;;;17.67
67509;BMP280;54354;44.724;11.284;2023-05-10T04:44:08;101101.78;;;17.64
67509;BMP280;54354;44.724;11.284;2023-05-10T04:46:34;101106.38;;;17.64
67509;BMP280;54354;44.724;11.284;2023-05-10T04:48:59;101099.25;;;17.60
67509;BMP280;54354;44.724;11.284;2023-05-10T04:51:24;101096.56;;;17.60
67509;BMP280;54354;44.724;11.284;2023-05-10T04:53:50;101100.78;;;17.62
67509;BMP280;54354;44.724;11.284;2023-05-10T04:56:15;101091.97;;;17.61
67509;BMP280;54354;44.724;11.284;2023-05-10T04:58:41;101097.31;;;17.61
67509;BMP280;54354;44.724;11.284;2023-05-10T05:01:07;101089.00;;;17.59
67509;BMP280;54354;44.724;11.284;2023-05-10T05:03:33;101090.31;;;17.54
67509;BMP280;54354;44.724;11.284;2023-05-10T05:05:58;101090.94;;;17.49
67509;BMP280;54354;44.724;11.284;2023-05-10T05:08:24;101091.38;;;17.48
67509;BMP280;54354;44.724;11.284;2023-05-10T05:10:49;101091.38;;;17.48
67509;BMP280;54354;44.724;11.284;2023-05-10T05:13:15;101085.69;;;17.46
67509;BMP280;54354;44.724;11.284;2023-05-10T05:15:40;101090.31;;;17.45
67509;BMP280;54354;44.724;11.284;2023-05-10T05:18:06;101086.31;;;17.41
67509;BMP280;54354;44.724;11.284;2023-05-10T05:20:32;101077.97;;;17.39
67509;BMP280;54354;44.724;11.284;2023-05-10T05:22:58;101083.63;;;17.41
67509;BMP280;54354;44.724;11.284;2023-05-10T05:25:23;101075.16;;;17.42
67509;BMP280;54354;44.724;11.284;2023-05-10T05:27:48;101076.03;;;17.39
67509;BMP280;54354;44.724;11.284;2023-05-10T05:30:14;101078.56;;;17.34
67509;BMP280;54354;44.724;11.284;2023-05-10T05:32:39;101067.56;;;17.31
67509;BMP280;54354;44.724;11.284;2023-05-10T05:35:05;101078.25;;;17.31
67509;BMP280;54354;44.724;11.284;2023-05-10T05:37:30;101075.28;;;17.29
67509;BMP280;54354;44.724;11.284;2023-05-10T05:39:56;101070.81;;;17.26
67509;BMP280;54354;44.724;11.284;2023-05-10T05:42:21;101078.41;;;17.28
67509;BMP280;54354;44.724;11.284;2023-05-10T05:44:47;101076.34;;;17.32
67509;BMP280;54354;44.724;11.284;2023-05-10T05:47:13;101071.88;;;17.38
67509;BMP280;54354;44.724;11.284;2023-05-10T05:49:38;101080.19;;;17.40
67509;BMP280;54354;44.724;11.284;2023-05-10T05:52:04;101079.19;;;17.38
67509;BMP280;54354;44.724;11.284;2023-05-10T05:54:30;101073.34;;;17.39
67509;BMP280;54354;44.724;11.284;2023-05-10T05:56:56;101072.59;;;17.39
67509;BMP280;54354;44.724;11.284;2023-05-10T05:59:21;101074.81;;;17.40
67509;BMP280;54354;44.724;11.284;2023-05-10T06:01:47;101073.81;;;17.38
67509;BMP280;54354;44.724;11.284;2023-05-10T06:04:12;101076.03;;;17.39
67509;BMP280;54354;44.724;11.284;2023-05-10T06:06:38;101084.38;;;17.41
67509;BMP280;54354;44.724;11.284;2023-05-10T06:09:03;101072.47;;;17.42
67509;BMP280;54354;44.724;11.284;2023-05-10T06:11:29;101077.81;;;17.42
67509;BMP280;54354;44.724;11.284;2023-05-10T06:13:55;101072.63;;;17.48
67509;BMP280;54354;44.724;11.284;2023-05-10T06:16:21;101075.44;;;17.53
67509;BMP280;54354;44.724;11.284;2023-05-10T06:18:46;101074.41;;;17.51
67509;BMP280;54354;44.724;11.284;2023-05-10T06:21:11;101074.09;;;17.49
67509;BMP280;54354;44.724;11.284;2023-05-10T06:23:40;101075.31;;;17.48
67509;BMP280;54354;44.724;11.284;2023-05-10T06:26:06;101075.00;;;17.46
67509;BMP280;54354;44.724;11.284;2023-05-10T06:28:32;101081.41;;;17.48
67509;BMP280;54354;44.724;11.284;2023-05-10T06:30:58;101071.31;;;17.52
67509;BMP280;54354;44.724;11.284;2023-05-10T06:33:24;101079.59;;;17.54
67509;BMP280;54354;44.724;11.284;2023-05-10T06:35:49;101082.44;;;17.51
67509;BMP280;54354;44.724;11.284;2023-05-10T06:38:15;101081.09;;;17.46
67509;BMP280;54354;44.724;11.284;2023-05-10T06:40:43;101084.22;;;17.45
67509;BMP280;54354;44.724;11.284;2023-05-10T06:43:09;101075.16;;;17.42
67509;BMP280;54354;44.724;11.284;2023-05-10T06:45:34;101078.69;;;17.39
67509;BMP280;54354;44.724;11.284;2023-05-10T06:47:59;101081.84;;;17.38
67509;BMP280;54354;44.724;11.284;2023-05-10T06:50:25;101079.19;;;17.38
67509;BMP280;54354;44.724;11.284;2023-05-10T06:52:50;101081.84;;;17.38
67509;BMP280;54354;44.724;11.284;2023-05-10T06:55:16;101082.13;;;17.40
67509;BMP280;54354;44.724;11.284;2023-05-10T06:57:41;101083.31;;;17.39
67509;BMP280;54354;44.724;11.284;2023-05-10T07:00:07;101078.56;;;17.43
67509;BMP280;54354;44.724;11.284;2023-05-10T07:02:32;101075.16;;;17.42
67509;BMP280;54354;44.724;11.284;2023-05-10T07:04:58;101078.56;;;17.43
67509;BMP280;54354;44.724;11.284;2023-05-10T07:07:23;101073.34;;;17.39
67509;BMP280;54354;44.724;11.284;2023-05-10T07:09:49;101077.06;;;17.33
67509;BMP280;54354;44.724;11.284;2023-05-10T07:12:15;101074.41;;;17.33
67509;BMP280;54354;44.724;11.284;2023-05-10T07:14:40;101076.34;;;17.32
67509;BMP280;54354;44.724;11.284;2023-05-10T07:17:05;101069.19;;;17.29
67509;BMP280;54354;44.724;11.284;2023-05-10T07:19:31;101073.78;;;17.28
67509;BMP280;54354;44.724;11.284;2023-05-10T07:21:57;101077.34;;;17.25
67509;BMP280;54354;44.724;11.284;2023-05-10T07:24:23;101075.09;;;17.24
67509;BMP280;54354;44.724;11.284;2023-05-10T07:26:49;101071.56;;;17.27
67509;BMP280;54354;44.724;11.284;2023-05-10T07:29:15;101077.94;;;17.29
67509;BMP280;54354;44.724;11.284;2023-05-10T07:31:41;101077.81;;;17.33
67509;BMP280;54354;44.724;11.284;2023-05-10T07:34:08;101065.63;;;17.32
67509;BMP280;54354;44.724;11.284;2023-05-10T07:36:34;101076.91;;;17.27
67509;BMP280;54354;44.724;11.284;2023-05-10T07:39:00;101077.34;;;17.25
67509;BMP280;54354;44.724;11.284;2023-05-10T07:41:26;101067.22;;;17.20
67509;BMP280;54354;44.724;11.284;2023-05-10T07:43:52;101073.47;;;17.17
67509;BMP280;54354;44.724;11.284;2023-05-10T07:46:18;101081.03;;;17.19
67509;BMP280;54354;44.724;11.284;2023-05-10T07:48:45;101069.47;;;17.22
67509;BMP280;54354;44.724;11.284;2023-05-10T07:51:10;101073.66;;;17.23
67509;BMP280;54354;44.724;11.284;2023-05-10T07:53:36;101066.78;;;17.22
67509;BMP280;54354;44.724;11.284;2023-05-10T07:58:47;101076.56;;;17.16
67509;BMP280;54354;44.724;11.284;2023-05-10T08:01:12;101082.94;;;17.09
67509;BMP280;54354;44.724;11.284;2023-05-10T08:03:39;101090.06;;;17.03
67509;BMP280;54354;44.724;11.284;2023-05-10T08:06:04;101083.50;;;16.95
67509;BMP280;54354;44.724;11.284;2023-05-10T08:08:29;101071.75;;;16.92
67509;BMP280;54354;44.724;11.284;2023-05-10T08:10:56;101077.41;;;16.94
67509;BMP280;54354;44.724;11.284;2023-05-10T08:13:21;101075.78;;;16.97
67509;BMP280;54354;44.724;11.284;2023-05-10T08:15:47;101083.34;;;16.98
67509;BMP280;54354;44.724;11.284;2023-05-10T08:18:13;101083.34;;;16.98
67509;BMP280;54354;44.724;11.284;2023-05-10T08:20:38;101076.97;;;16.96
67509;BMP280;54354;44.724;11.284;2023-05-10T08:23:03;101085.13;;;16.92
67509;BMP280;54354;44.724;11.284;2023-05-10T08:25:29;101082.47;;;16.92
67509;BMP280;54354;44.724;11.284;2023-05-10T08:27:54;101079.22;;;16.97
67509;BMP280;54354;44.724;11.284;2023-05-10T08:30:20;101082.94;;;17.00
67509;BMP280;54354;44.724;11.284;2023-05-10T08:32:45;101085.03;;;17.05
67509;BMP280;54354;44.724;11.284;2023-05-10T08:35:10;101079.09;;;17.10
67509;BMP280;54354;44.724;11.284;2023-05-10T08:37:36;101079.84;;;17.11
67509;BMP280;54354;44.724;11.284;2023-05-10T08:40:03;101082.94;;;17.09
67509;BMP280;54354;44.724;11.284;2023-05-10T08:42:30;101085.31;;;17.07
67509;BMP280;54354;44.724;11.284;2023-05-10T08:45:00;101082.34;;;17.05
67509;BMP280;54354;44.724;11.284;2023-05-10T08:47:25;101074.91;;;17.09
67509;BMP280;54354;44.724;11.284;2023-05-10T08:49:51;101077.19;;;17.11
67509;BMP280;54354;44.724;11.284;2023-05-10T08:52:17;101076.28;;;17.14
67509;BMP280;54354;44.724;11.284;2023-05-10T08:54:43;101081.63;;;17.14
67509;BMP280;54354;44.724;11.284;2023-05-10T08:57:09;101076.56;;;17.16
67509;BMP280;54354;44.724;11.284;2023-05-10T08:59:35;101087.59;;;17.18
67509;BMP280;54354;44.724;11.284;2023-05-10T09:02:00;101083.13;;;17.15
67509;BMP280;54354;44.724;11.284;2023-05-10T09:04:27;101087.44;;;17.12
67509;BMP280;54354;44.724;11.284;2023-05-10T09:06:52;101091.41;;;17.08
67509;BMP280;54354;44.724;11.284;2023-05-10T09:09:18;101087.25;;;17.07
67509;BMP280;54354;44.724;11.284;2023-05-10T09:11:44;101090.38;;;17.05
67509;BMP280;54354;44.724;11.284;2023-05-10T09:14:10;101092.19;;;17.08
67509;BMP280;54354;44.724;11.284;2023-05-10T09:16:37;101088.44;;;17.06
67509;BMP280;54354;44.724;11.284;2023-05-10T09:19:03;101080.84;;;17.04
67509;BMP280;54354;44.724;11.284;2023-05-10T09:21:37;101089.34;;;17.02
67509;BMP280;54354;44.724;11.284;2023-05-10T09:24:06;101084.84;;;16.99
67509;BMP280;54354;44.724;11.284;2023-05-10T09:26:31;101092.44;;;17.01
67509;BMP280;54354;44.724;11.284;2023-05-10T09:28:58;101096.16;;;17.03
67509;BMP280;54354;44.724;11.284;2023-05-10T09:31:24;101089.34;;;17.02
67509;BMP280;54354;44.724;11.284;2023-05-10T09:33:52;101090.94;;;17.00
67509;BMP280;54354;44.724;11.284;2023-05-10T09:36:18;101094.53;;;16.97
67509;BMP280;54354;44.724;11.284;2023-05-10T09:38:47;101090.03;;;16.94
67509;BMP280;54354;44.724;11.284;2023-05-10T09:41:17;101094.63;;;16.93
67509;BMP280;54354;44.724;11.284;2023-05-10T09:43:42;101087.19;;;16.88
67509;BMP280;54354;44.724;11.284;2023-05-10T09:46:08;101081.34;;;16.81
67509;BMP280;54354;44.724;11.284;2023-05-10T09:48:39;101092.31;;;16.73
67509;BMP280;54354;44.724;11.284;2023-05-10T09:51:06;101088.72;;;16.67
67509;BMP280;54354;44.724;11.284;2023-05-10T09:53:31;101079.34;;;16.63
67509;BMP280;54354;44.724;11.284;2023-05-10T09:55:57;101086.63;;;16.62
67509;BMP280;54354;44.724;11.284;2023-05-10T09:58:22;101086.19;;;16.64
67509;BMP280;54354;44.724;11.284;2023-05-10T10:00:48;101094.97;;;16.64
67509;BMP280;54354;44.724;11.284;2023-05-10T10:03:17;101081.00;;;16.60
67509;BMP280;54354;44.724;11.284;2023-05-10T10:05:43;101096.16;;;16.63
67509;BMP280;54354;44.724;11.284;2023-05-10T10:08:09;101096.88;;;16.64
67509;BMP280;54354;44.724;11.284;2023-05-10T10:10:34;101103.13;;;16.61
67509;BMP280;54354;44.724;11.284;2023-05-10T10:13:00;101088.25;;;16.60
67509;BMP280;54354;44.724;11.284;2023-05-10T10:15:26;101097.78;;;16.61
67509;BMP280;54354;44.724;11.284;2023-05-10T10:17:52;101097.25;;;16.53
67509;BMP280;54354;44.724;11.284;2023-05-10T10:20:23;101105.72;;;16.52
67509;BMP280;54354;44.724;11.284;2023-05-10T10:22:52;101112.38;;;16.47
67509;BMP280;54354;44.724;11.284;2023-05-10T10:25:18;101123.53;;;16.45
67509;BMP280;54354;44.724;11.284;2023-05-10T10:30:25;101134.66;;;16.44
67509;BMP280;54354;44.724;11.284;2023-05-10T10:33:06;101138.50;;;16.43
67509;BMP280;54354;44.724;11.284;2023-05-10T10:35:36;101136.06;;;16.36
67509;BMP280;54354;44.724;11.284;2023-05-10T10:38:01;101121.66;;;16.33
67509;BMP280;54354;44.724;11.284;2023-05-10T10:42:52;101127.69;;;16.25
67509;BMP280;54354;44.724;11.284;2023-05-10T10:45:18;101139.25;;;16.21
67509;BMP280;54354;44.724;11.284;2023-05-10T10:47:45;101135.38;;;16.23
67509;BMP280;54354;44.724;11.284;2023-05-10T10:50:10;101141.59;;;16.19
67509;BMP280;54354;44.724;11.284;2023-05-10T10:52:38;101126.28;;;16.20
67509;BMP280;54354;44.724;11.284;2023-05-10T10:55:07;101134.78;;;16.18
67509;BMP280;54354;44.724;11.284;2023-05-10T11:00:20;101123.53;;;16.24
67509;BMP280;54354;44.724;11.284;2023-05-10T11:02:47;101115.69;;;16.29
67509;BMP280;54354;44.724;11.284;2023-05-10T11:08:01;101118.56;;;16.35
67509;BMP280;54354;44.724;11.284;2023-05-10T11:10:31;101121.22;;;16.35
67509;BMP280;54354;44.724;11.284;2023-05-10T11:13:00;101118.22;;;16.33
67509;BMP280;54354;44.724;11.284;2023-05-10T11:15:30;101125.19;;;16.30
67509;BMP280;54354;44.724;11.284;2023-05-10T11:17:55;101113.88;;;16.26
67509;BMP280;54354;44.724;11.284;2023-05-10T11:20:21;101125.31;;;16.27
67509;BMP280;54354;44.724;11.284;2023-05-10T11:22:52;101120.28;;;16.29
67509;BMP280;54354;44.724;11.284;2023-05-10T11:25:20;101119.09;;;16.30
67509;BMP280;54354;44.724;11.284;2023-05-10T11:27:49;101115.56;;;16.33
67509;BMP280;54354;44.724;11.284;2023-05-10T11:30:14;101110.09;;;16.36
67509;BMP280;54354;44.724;11.284;2023-05-10T11:32:40;101117.25;;;16.39
67509;BMP280;54354;44.724;11.284;2023-05-10T11:35:09;101110.72;;;16.40
67509;BMP280;54354;44.724;11.284;2023-05-10T11:37:34;101107.59;;;16.42
67509;BMP280;54354;44.724;11.284;2023-05-10T11:40:00;101112.94;;;16.42
67509;BMP280;54354;44.724;11.284;2023-05-10T11:42:27;101107.72;;;16.38
67509;BMP280;54354;44.724;11.284;2023-05-10T11:44:52;101113.81;;;16.39
67509;BMP280;54354;44.724;11.284;2023-05-10T11:47:18;101107.59;;;16.42
67509;BMP280;54354;44.724;11.284;2023-05-10T11:49:43;101109.84;;;16.43
67509;BMP280;54354;44.724;11.284;2023-05-10T11:52:09;101112.19;;;16.41
67509;BMP280;54354;44.724;11.284;2023-05-10T11:54:36;101111.13;;;16.39
67509;BMP280;54354;44.724;11.284;2023-05-10T11:57:01;101110.09;;;16.36
67509;BMP280;54354;44.724;11.284;2023-05-10T11:59:26;101108.31;;;16.33
67509;BMP280;54354;44.724;11.284;2023-05-10T12:01:53;101113.66;;;16.33
67509;BMP280;54354;44.724;11.284;2023-05-10T12:04:19;101114.66;;;16.36
67509;BMP280;54354;44.724;11.284;2023-05-10T12:06:44;101117.66;;;16.38
67509;BMP280;54354;44.724;11.284;2023-05-10T12:09:11;101119.75;;;16.34
67509;BMP280;54354;44.724;11.284;2023-05-10T12:11:37;101116.31;;;16.33
67509;BMP280;54354;44.724;11.284;2023-05-10T12:14:04;101116.59;;;16.35
67509;BMP280;54354;44.724;11.284;2023-05-10T12:16:29;101114.66;;;16.36
67509;BMP280;54354;44.724;11.284;2023-05-10T12:18:56;101115.88;;;16.35
67509;BMP280;54354;44.724;11.284;2023-05-10T12:21:22;101119.41;;;16.32
67509;BMP280;54354;44.724;11.284;2023-05-10T12:23:48;101116.00;;;16.31
67509;BMP280;54354;44.724;11.284;2023-05-10T12:26:14;101114.81;;;16.32
67509;BMP280;54354;44.724;11.284;2023-05-10T12:28:40;101117.91;;;16.31
67509;BMP280;54354;44.724;11.284;2023-05-10T12:31:06;101113.66;;;16.33
67509;BMP280;54354;44.724;11.284;2023-05-10T12:33:38;101105.06;;;16.38
67509;BMP280;54354;44.724;11.284;2023-05-10T12:36:04;101108.06;;;16.40
67509;BMP280;54354;44.724;11.284;2023-05-10T12:38:32;101112.50;;;16.43
67509;BMP280;54354;44.724;11.284;2023-05-10T12:40:59;101114.00;;;16.44
67509;BMP280;54354;44.724;11.284;2023-05-10T12:43:24;101109.09;;;16.43
67509;BMP280;54354;44.724;11.284;2023-05-10T12:45:50;101108.06;;;16.40
67509;BMP280;54354;44.724;11.284;2023-05-10T12:48:15;101105.19;;;16.35
67509;BMP280;54354;44.724;11.284;2023-05-10T12:50:41;101117.19;;;16.30
67509;BMP280;54354;44.724;11.284;2023-05-10T12:53:06;101108.53;;;16.26
67509;BMP280;54354;44.724;11.284;2023-05-10T12:55:32;101109.09;;;16.21
67509;BMP280;54354;44.724;11.284;2023-05-10T12:57:57;101106.84;;;16.19
67509;BMP280;54354;44.724;11.284;2023-05-10T13:00:22;101112.19;;;16.19
67509;BMP280;54354;44.724;11.284;2023-05-10T13:02:48;101113.25;;;16.22
67509;BMP280;54354;44.724;11.284;2023-05-10T13:05:14;101115.38;;;16.27
67509;BMP280;54354;44.724;11.284;2023-05-10T13:07:39;101110.22;;;16.33
67509;BMP280;54354;44.724;11.284;2023-05-10T13:10:05;101107.31;;;16.40
67509;BMP280;54354;44.724;11.284;2023-05-10T13:12:31;101109.41;;;16.45
67509;BMP280;54354;44.724;11.284;2023-05-10T13:14:56;101100.09;;;16.49
67509;BMP280;54354;44.724;11.284;2023-05-10T13:17:22;101102.19;;;16.55
67509;BMP280;54354;44.724;11.284;2023-05-10T13:19:47;101096.09;;;16.54
67509;BMP280;54354;44.724;11.284;2023-05-10T13:22:13;101091.78;;;16.57
67509;BMP280;54354;44.724;11.284;2023-05-10T13:24:38;101093.47;;;16.63
67509;BMP280;54354;44.724;11.284;2023-05-10T13:27:03;101089.94;;;16.66
67509;BMP280;54354;44.724;11.284;2023-05-10T13:29:29;101081.34;;;16.71
67509;BMP280;54354;44.724;11.284;2023-05-10T13:31:54;101088.47;;;16.74
67509;BMP280;54354;44.724;11.284;2023-05-10T13:34:20;101076.88;;;16.77
67509;BMP280;54354;44.724;11.284;2023-05-10T13:36:46;101081.81;;;16.79
67509;BMP280;54354;44.724;11.284;2023-05-10T13:39:11;101080.63;;;16.80
67509;BMP280;54354;44.724;11.284;2023-05-10T13:41:37;101082.13;;;16.81
67509;BMP280;54354;44.724;11.284;2023-05-10T13:44:02;101078.13;;;16.86
67509;BMP280;54354;44.724;11.284;2023-05-10T13:46:28;101075.63;;;16.91
67509;BMP280;54354;44.724;11.284;2023-05-10T13:48:54;101058.69;;;16.94
67509;BMP280;54354;44.724;11.284;2023-05-10T13:51:19;101069.06;;;16.92
67509;BMP280;54354;44.724;11.284;2023-05-10T13:53:45;101075.19;;;16.93
67509;BMP280;54354;44.724;11.284;2023-05-10T13:56:12;101080.25;;;17.00
67509;BMP280;54354;44.724;11.284;2023-05-10T13:58:37;101061.69;;;17.06
67509;BMP280;54354;44.724;11.284;2023-05-10T14:01:03;101058.75;;;17.13
67509;BMP280;54354;44.724;11.284;2023-05-10T14:03:30;101052.81;;;17.18
67509;BMP280;54354;44.724;11.284;2023-05-10T14:05:55;101046.97;;;17.19
67509;BMP280;54354;44.724;11.284;2023-05-10T14:08:20;101046.25;;;17.19